createdAt,value
2022-11-04T00:03:15.951Z,5.47
2022-11-04T00:06:58.397Z,8.00
2022-11-04T00:10:58.643Z,8.23
2022-11-04T00:14:40.737Z,6.68
2022-11-04T00:18:22.521Z,6.73
2022-11-04T00:22:22.821Z,7.53
2022-11-04T00:26:23.309Z,7.38
2022-11-04T00:30:09.667Z,9.55
2022-11-04T00:33:53.387Z,6.30
2022-11-04T00:37:39.829Z,12.97
2022-11-04T00:41:28.157Z,6.00
2022-11-04T00:45:10.336Z,13.70
2022-11-04T00:48:52.071Z,8.93
2022-11-04T00:52:33.860Z,7.83
2022-11-04T00:56:15.540Z,6.57
2022-11-04T00:59:57.294Z,7.40
2022-11-04T01:03:39.454Z,7.00
2022-11-04T01:07:21.267Z,5.77
2022-11-04T01:11:07.576Z,7.20
2022-11-04T01:14:49.797Z,5.30
2022-11-04T01:18:31.648Z,8.23
2022-11-04T01:22:13.371Z,6.77
2022-11-04T01:25:55.152Z,6.90
2022-11-04T01:29:36.839Z,5.57
2022-11-04T01:33:18.582Z,4.60
2022-11-04T01:37:00.307Z,4.30
2022-11-04T01:40:42.089Z,4.83
2022-11-04T01:44:42.099Z,5.67
2022-11-04T01:48:31.072Z,5.50
2022-11-04T01:52:18.392Z,4.87
2022-11-04T01:56:04.381Z,7.50
2022-11-04T01:59:46.852Z,5.70
2022-11-04T02:03:55.981Z,7.70
2022-11-04T02:07:38.165Z,6.13
2022-11-04T02:11:38.499Z,6.00
2022-11-04T02:15:37.595Z,6.93
2022-11-04T02:19:50.026Z,6.03
2022-11-04T02:24:07.122Z,7.40
2022-11-04T02:28:03.498Z,6.63
2022-11-04T02:31:55.881Z,6.27
2022-11-04T02:35:43.822Z,6.17
2022-11-04T02:39:39.317Z,11.27
2022-11-04T02:43:46.621Z,7.77
2022-11-04T02:47:30.799Z,5.37
2022-11-04T02:51:20.869Z,5.27
2022-11-04T02:55:15.428Z,6.63
2022-11-04T02:59:07.668Z,7.07
2022-11-04T03:02:56.499Z,8.37
2022-11-04T03:06:39.894Z,12.20
2022-11-04T03:10:32.014Z,8.47
2022-11-04T03:14:18.911Z,9.53
2022-11-04T03:18:00.575Z,11.73
2022-11-04T03:22:14.393Z,12.57
2022-11-04T03:26:06.847Z,10.47
2022-11-04T03:30:05.580Z,10.27
2022-11-04T03:33:52.173Z,8.83
2022-11-04T03:37:34.545Z,9.03
2022-11-04T03:41:27.265Z,9.03
2022-11-04T03:45:10.340Z,13.97
2022-11-04T03:48:53.963Z,11.50
2022-11-04T03:52:36.761Z,10.77
2022-11-04T03:56:27.272Z,10.97
2022-11-04T04:00:13.539Z,14.13
2022-11-04T04:04:00.709Z,12.97
2022-11-04T04:07:48.409Z,12.57
2022-11-04T04:11:46.708Z,11.97
2022-11-04T04:15:35.960Z,13.20
2022-11-04T04:19:21.426Z,13.37
2022-11-04T04:23:29.571Z,11.63
2022-11-04T04:27:30.936Z,14.67
2022-11-04T04:31:38.724Z,15.53
2022-11-04T04:35:43.163Z,12.50
2022-11-04T04:39:48.641Z,11.80
2022-11-04T04:43:49.808Z,14.97
2022-11-04T04:47:33.989Z,12.40
2022-11-04T04:51:16.176Z,13.60
2022-11-04T04:54:57.956Z,19.33
2022-11-04T04:58:39.706Z,15.53
2022-11-04T05:02:21.629Z,15.53
2022-11-04T05:06:03.570Z,10.87
2022-11-04T05:09:45.308Z,15.80
2022-11-04T05:13:27.074Z,16.70
2022-11-04T05:17:08.832Z,16.27
2022-11-04T05:20:50.558Z,18.87
2022-11-04T05:24:32.276Z,16.90
2022-11-04T05:28:14.024Z,18.40
2022-11-04T05:31:55.812Z,16.23
2022-11-04T05:35:37.640Z,22.63
2022-11-04T05:39:19.340Z,23.70
2022-11-04T05:43:01.262Z,15.37
2022-11-04T05:46:43.029Z,16.33
2022-11-04T05:50:24.825Z,15.63
2022-11-04T05:54:06.538Z,14.70
2022-11-04T05:57:48.290Z,19.20
2022-11-04T06:01:35.864Z,14.47
2022-11-04T06:05:17.641Z,14.33
2022-11-04T06:08:59.696Z,16.17
2022-11-04T06:12:41.523Z,14.73
2022-11-04T06:16:24.030Z,11.80
2022-11-04T06:20:06.966Z,12.77
2022-11-04T06:23:49.023Z,13.23
2022-11-04T06:27:30.796Z,16.63
2022-11-04T06:31:14.695Z,13.80
2022-11-04T06:34:56.548Z,13.70
2022-11-04T06:38:38.685Z,14.57
2022-11-04T06:42:20.388Z,18.43
2022-11-04T06:46:02.949Z,14.73
2022-11-04T06:49:44.746Z,31.37
2022-11-04T06:53:27.771Z,15.20
2022-11-04T06:57:12.096Z,18.23
2022-11-04T07:00:54.046Z,15.20
2022-11-04T07:04:37.455Z,16.80
2022-11-04T07:08:19.240Z,11.23
2022-11-04T07:12:01.317Z,14.17
2022-11-04T07:15:43.129Z,16.23
2022-11-04T07:19:24.881Z,13.53
2022-11-04T07:23:06.580Z,16.77
2022-11-04T07:26:48.391Z,10.97
2022-11-04T07:30:30.125Z,13.90
2022-11-04T07:34:11.820Z,13.03
2022-11-04T07:37:55.189Z,14.67
2022-11-04T07:41:37.101Z,13.70
2022-11-04T07:45:18.877Z,12.63
2022-11-04T07:49:00.848Z,11.77
2022-11-04T07:52:42.612Z,11.40
2022-11-04T07:56:24.849Z,10.90
2022-11-04T08:00:07.167Z,14.10
2022-11-04T08:03:50.179Z,17.13
2022-11-04T08:07:32.456Z,19.37
2022-11-04T08:11:18.045Z,20.53
2022-11-04T08:15:00.324Z,20.13
2022-11-04T08:18:43.063Z,18.63
2022-11-04T08:22:27.603Z,22.80
2022-11-04T08:26:17.067Z,23.77
2022-11-04T08:29:58.975Z,19.83
2022-11-04T08:33:41.152Z,20.83
2022-11-04T08:37:23.097Z,20.73
2022-11-04T08:41:06.897Z,18.07
2022-11-04T08:44:51.765Z,13.67
2022-11-04T08:48:36.139Z,15.20
2022-11-04T08:52:17.946Z,20.27
2022-11-04T08:55:59.753Z,14.33
2022-11-04T08:59:41.453Z,14.03
2022-11-04T09:03:23.262Z,9.93
2022-11-04T09:07:08.280Z,10.03
2022-11-04T09:10:50.155Z,10.83
2022-11-04T09:14:31.920Z,7.63
2022-11-04T09:18:13.619Z,7.27
2022-11-04T09:21:55.391Z,10.00
2022-11-04T09:25:39.069Z,7.90
2022-11-04T09:29:21.420Z,6.60
2022-11-04T09:33:03.884Z,8.53
2022-11-04T09:36:47.006Z,7.27
2022-11-04T09:40:29.681Z,15.40
2022-11-04T09:44:28.588Z,25.57
2022-11-04T09:48:31.306Z,9.47
2022-11-04T09:52:25.396Z,7.10
2022-11-04T09:56:20.989Z,8.30
2022-11-04T10:00:03.913Z,5.10
2022-11-04T10:03:58.691Z,8.15
2022-11-04T10:07:40.348Z,6.65
2022-11-04T10:11:34.026Z,7.07
2022-11-04T10:15:45.804Z,6.00
2022-11-04T10:19:52.401Z,6.60
2022-11-04T10:23:38.286Z,7.45
2022-11-04T10:27:27.370Z,6.43
2022-11-04T10:31:16.853Z,3.65
2022-11-04T10:35:12.933Z,4.80
2022-11-04T10:38:56.063Z,3.45
2022-11-04T10:42:37.848Z,3.63
2022-11-04T10:46:42.884Z,5.45
2022-11-04T10:50:34.689Z,3.88
2022-11-04T10:54:16.501Z,4.22
2022-11-04T10:57:59.419Z,3.85
2022-11-04T11:01:53.417Z,3.50
2022-11-04T11:05:35.247Z,2.90
2022-11-04T11:09:28.498Z,4.13
2022-11-04T11:13:28.835Z,3.83
2022-11-04T11:17:22.586Z,5.35
2022-11-04T11:21:23.901Z,4.53
2022-11-04T11:25:26.194Z,2.75
2022-11-04T11:29:11.455Z,4.03
2022-11-04T11:33:00.428Z,39.15
2022-11-04T11:36:44.676Z,3.60
2022-11-04T11:40:27.756Z,4.82
2022-11-04T11:44:23.294Z,3.53
2022-11-04T11:48:43.800Z,22.00
2022-11-04T11:52:36.854Z,12.73
2022-11-04T11:56:58.818Z,3.88
2022-11-04T12:00:49.254Z,6.28
2022-11-04T12:13:26.751Z,2.63
2022-11-04T12:17:15.223Z,3.53
2022-11-04T12:21:05.775Z,2.53
2022-11-04T12:25:10.619Z,6.13
2022-11-04T12:29:10.512Z,3.38
2022-11-04T12:33:07.021Z,3.58
2022-11-04T12:37:23.932Z,2.35
2022-11-04T12:41:37.590Z,4.57
2022-11-04T12:45:23.208Z,2.83
2022-11-04T12:49:07.765Z,6.15
2022-11-04T12:53:30.568Z,5.45
2022-11-04T12:57:27.312Z,1.92
2022-11-04T13:01:34.921Z,3.45
2022-11-04T13:05:35.861Z,4.13
2022-11-04T13:09:38.408Z,4.13
2022-11-04T13:13:27.114Z,6.22
2022-11-04T13:17:14.028Z,4.45
2022-11-04T13:21:07.051Z,4.35
2022-11-04T13:24:57.821Z,3.72
2022-11-04T13:28:41.869Z,4.32
2022-11-04T13:32:33.013Z,3.92
2022-11-04T13:36:43.896Z,4.38
2022-11-04T13:41:00.237Z,3.67
2022-11-04T13:44:48.682Z,3.22
2022-11-04T13:48:33.588Z,5.30
2022-11-04T13:52:15.556Z,3.13
2022-11-04T13:56:09.467Z,3.95
2022-11-04T14:00:11.084Z,4.70
2022-11-04T14:04:05.385Z,5.85
2022-11-04T14:08:01.827Z,3.95
2022-11-04T14:12:11.081Z,5.55
2022-11-04T14:16:13.866Z,5.53
2022-11-04T14:20:00.845Z,2.60
2022-11-04T14:23:45.991Z,4.57
2022-11-04T14:27:35.890Z,6.07
2022-11-04T14:31:38.249Z,4.43
2022-11-04T14:35:20.127Z,6.07
2022-11-04T14:39:12.613Z,4.67
2022-11-04T14:42:57.429Z,3.37
2022-11-04T14:46:47.602Z,3.07
2022-11-04T14:54:20.492Z,3.33
2022-11-04T14:58:24.118Z,2.27
2022-11-04T15:02:16.192Z,1.90
2022-11-04T15:06:06.505Z,2.57
2022-11-04T15:09:50.089Z,3.95
2022-11-04T15:13:43.479Z,2.03
2022-11-04T15:17:28.809Z,5.37
2022-11-04T15:21:10.706Z,16.77
2022-11-04T15:24:53.581Z,3.07
2022-11-04T15:28:45.000Z,5.00
2022-11-04T15:32:27.508Z,2.97
2022-11-04T15:36:18.342Z,2.87
2022-11-04T15:40:00.169Z,1.70
2022-11-04T15:43:41.954Z,3.53
2022-11-04T15:47:27.245Z,0.83
2022-11-04T15:51:11.712Z,3.23
2022-11-04T15:54:55.687Z,1.97
2022-11-04T15:58:40.724Z,4.37
2022-11-04T16:02:30.930Z,3.13
2022-11-04T16:06:13.828Z,2.80
2022-11-04T16:09:55.733Z,6.87
2022-11-04T16:13:37.615Z,4.40
2022-11-04T16:17:20.237Z,6.33
2022-11-04T16:21:30.581Z,3.17
2022-11-04T16:25:22.197Z,2.85
2022-11-04T16:29:09.154Z,4.27
2022-11-04T16:32:54.253Z,4.10
2022-11-04T16:36:36.259Z,4.37
2022-11-04T16:40:19.979Z,2.90
2022-11-04T16:44:04.024Z,2.47
2022-11-04T16:47:45.741Z,6.30
2022-11-04T16:51:27.581Z,3.47
2022-11-04T16:55:11.070Z,2.73
2022-11-04T16:58:53.284Z,3.20
2022-11-04T17:02:41.163Z,2.80
2022-11-04T17:06:24.053Z,2.07
2022-11-04T17:10:12.897Z,3.40
2022-11-04T17:13:54.570Z,3.57
2022-11-04T17:17:36.533Z,2.20
2022-11-04T17:21:20.480Z,2.60
2022-11-04T17:25:02.548Z,2.87
2022-11-04T17:28:44.332Z,2.40
2022-11-04T17:32:26.068Z,5.30
2022-11-04T17:36:14.715Z,2.53
2022-11-04T17:39:56.429Z,3.50
2022-11-04T17:43:56.541Z,5.03
2022-11-04T17:47:38.369Z,2.97
2022-11-04T17:51:20.146Z,2.00
2022-11-04T17:55:02.126Z,2.57
2022-11-04T17:58:44.068Z,3.57
2022-11-04T18:02:26.015Z,2.87
2022-11-04T18:06:08.654Z,2.20
2022-11-04T18:09:50.361Z,2.23
2022-11-04T18:13:32.572Z,3.27
2022-11-04T18:17:14.286Z,4.87
2022-11-04T18:21:06.101Z,2.37
2022-11-04T18:24:48.017Z,3.77
2022-11-04T18:28:29.815Z,2.83
2022-11-04T18:32:11.597Z,3.77
2022-11-04T18:35:53.291Z,5.90
2022-11-04T18:39:35.217Z,5.00
2022-11-04T18:43:16.985Z,4.47
2022-11-04T18:46:58.719Z,4.50
2022-11-04T18:50:40.401Z,4.97
2022-11-04T18:54:22.115Z,5.17
2022-11-04T18:58:04.012Z,7.20
2022-11-04T19:01:46.044Z,5.43
2022-11-04T19:05:28.001Z,7.27
2022-11-04T19:13:20.396Z,4.27
2022-11-04T19:17:02.227Z,4.60
2022-11-04T19:20:44.916Z,4.23
2022-11-04T19:24:28.248Z,25.00
2022-11-04T19:28:34.787Z,7.30
2022-11-04T19:32:14.626Z,3.43
2022-11-04T19:35:57.367Z,4.17
2022-11-04T19:39:39.538Z,3.30
2022-11-04T19:43:22.701Z,4.87
2022-11-04T19:47:04.615Z,9.10
2022-11-04T19:50:49.727Z,6.43
2022-11-04T19:54:31.437Z,5.63
2022-11-04T19:58:13.397Z,8.83
2022-11-04T20:01:55.309Z,7.43
2022-11-04T20:05:42.322Z,4.50
2022-11-04T20:09:25.958Z,8.97
2022-11-04T20:13:33.862Z,9.47
2022-11-04T20:17:15.599Z,5.70
2022-11-04T20:20:57.292Z,11.27
2022-11-04T20:24:39.041Z,6.63
2022-11-04T20:28:20.789Z,6.50
2022-11-04T20:32:02.787Z,14.37
2022-11-04T20:35:45.319Z,8.23
2022-11-04T20:39:27.044Z,13.23
2022-11-04T20:43:08.867Z,11.93
2022-11-04T20:46:50.571Z,7.97
2022-11-04T20:50:32.265Z,6.90
2022-11-04T20:54:14.512Z,7.03
2022-11-04T20:57:56.899Z,8.43
2022-11-04T21:01:41.523Z,8.13
2022-11-04T21:05:23.258Z,7.63
2022-11-04T21:09:07.559Z,9.27
2022-11-04T21:12:49.232Z,9.70
2022-11-04T21:16:31.229Z,8.07
2022-11-04T21:20:12.963Z,10.03
2022-11-04T21:23:59.232Z,7.67
2022-11-04T21:27:41.149Z,9.37
2022-11-04T21:31:23.980Z,9.90
2022-11-04T21:35:06.132Z,8.53
2022-11-04T21:38:48.274Z,7.23
2022-11-04T21:42:29.994Z,8.87
2022-11-04T21:46:14.679Z,7.97
2022-11-04T21:49:56.356Z,9.17
2022-11-04T21:53:38.911Z,21.03
2022-11-04T21:57:20.597Z,14.93
2022-11-04T22:01:03.717Z,11.70
2022-11-04T22:04:45.478Z,8.77
2022-11-04T22:08:27.296Z,9.10
2022-11-04T22:12:09.173Z,8.20
2022-11-04T22:16:00.827Z,7.77
2022-11-04T22:19:42.588Z,12.27
2022-11-04T22:23:24.500Z,8.83
2022-11-04T22:27:06.298Z,7.63
2022-11-04T22:30:48.110Z,10.67
2022-11-04T22:34:29.834Z,9.50
2022-11-04T22:38:11.734Z,11.87
2022-11-04T22:41:53.416Z,14.47
2022-11-04T22:45:37.468Z,15.47
2022-11-04T22:49:19.271Z,14.47
2022-11-04T22:53:00.983Z,13.83
2022-11-04T22:56:42.771Z,9.97
2022-11-04T23:00:24.508Z,13.90
2022-11-04T23:04:07.562Z,13.87
2022-11-04T23:07:49.345Z,16.73
2022-11-04T23:11:50.973Z,21.60
2022-11-04T23:15:51.491Z,35.73
2022-11-04T23:19:33.235Z,30.13
2022-11-04T23:23:33.324Z,21.33
2022-11-04T23:27:35.191Z,21.60
2022-11-04T23:31:16.879Z,20.00
2022-11-04T23:35:17.072Z,19.17
2022-11-04T23:38:58.840Z,15.00
2022-11-04T23:42:40.532Z,17.27
2022-11-04T23:46:43.463Z,17.80
2022-11-04T23:50:46.672Z,14.50
2022-11-04T23:54:47.192Z,15.33
2022-11-04T23:58:47.642Z,12.43
